Terminal Aerodrome Forecast
Issued by NWS

Current Version | Previous Version | Text Only | Print | Product List | Glossary On
Versions: 1 2 3 4 5 6 7 8 9 10 11 12 13 14
000
FTUS42 TJSJ 282000 AAA
TAFJMZ
TAF AMD
TJMZ 282000Z 2820/2918 VRB10KT P6SM VCTS BKN030CB
      TEMPO 2820/2822 3SM TSRA BKN025CB
     FM282330 00000KT P6SM BKN060
     FM291630 25010KT P6SM VCSH BKN030=

USA.gov is the U.S. government's official web portal to all federal, state and local government web resources and services.